KSAC/SAC METAR and TAF weather

Enter ICAO airport designator
Station Type Date Time Source
KSAC METAR 2020/01/28 20:53 UTC NOAA

KSAC 282053Z 15006KT 10SM OVC021 14/09 A3032 RMK AO2 SLP267 60000 T01390094 58013


Station Type Date Time Source
KSAC Decoded METAR 2020/01/28 20:53 UTC NOAA

SACRAMENTO EXECUTIVE AIRPORT , CA, United States (KSAC) 38-30N 121-30W 11M
Jan 28, 2020 - 03:53 PM EST / 2020.01.28 2053 UTC
Wind: from the SSE (150 degrees) at 7 MPH (6 KT):0
Visibility: 10 mile(s):0
Sky conditions: overcast
Temperature: 57.0 F (13.9 C)
Dew Point: 48.9 F (9.4 C)
Relative Humidity: 74%
Pressure (altimeter): 30.32 in. Hg (1026 hPa)
Pressure tendency: 0.04 inches (1.3 hPa) lower than three hours ago
ob: KSAC 282053Z 15006KT 10SM OVC021 14/09 A3032 RMK AO2 SLP267 60000 T01390094 58013
cycle: 21

Station Type Date Time Source
KSAC TAF 2020/01/28 18:34 UTC NOAA

TAF KSAC 281731Z 2818/2918 15004KT P6SM OVC045
FM282200 28004KT P6SM OVC250

Example: see airport list